Weather at Pbeaaye Airport

Public forecast

Using degrees Fahrenheit for public forecast. Weather courtesy of forecast.io.

Closest aviation weather report (METAR) to Pbeaaye Airport

Closest report is Cheboygan County Airport, 7.5 nm (13.9 km) NNE. Retrieved 2021/10/28 11:35 UTC (0 seconds ago):

KSLH 281135Z AUTO 00000KT 1SM BR VV007 04/04 A2990 RMK AO2

Closest aviation forecast (TAF) to Pbeaaye Airport

Closest forecast is Pellston Regional Airport of Emmet County Airport, 10.4 nm (19.2 km) WNW. Retrieved 2021/10/28 06:24 UTC (5 hours ago):

TAF KPLN 280521Z 2806/2906 13006KT P6SM OVC010 FM281400 10005KT P6SM OVC012 FM281600 10009KT P6SM BKN026 FM281800 09010G16KT P6SM BKN220 FM290300 09007KT P6SM BKN150